Miniplon — FIDV — position and weather

sailwx.info

Track history (hours):
 
Tides and Currents Weather Stations Pressure Air Temp Water Temp Dewpoint Dewpoint Depression Visibility Wind Speed Wind Dir Waves Ship Positions

Miniplon

Last reported at 2017-Sep-26 21:10 UTC. Time now 2017-Sep-26 21:58 UTC.
Position N 47°21' W 002°31'.

Type: SAR. MMSI: 228024600.

Date/timePositionNaut miles runAvg speedWind from/ knotsBaromVisibWave heightAir tempDewpointWater temp
2017-Sep-26 21:10N 47°21' W 002°31'46 2.2
2017-Sep-26 00:24N 46°41' W 001°58'0 0.6
2017-Sep-25 23:47N 46°41' W 001°58'3 9.1
2017-Sep-25 23:30N 46°38' W 001°57'5 9.6
2017-Sep-25 23:00N 46°34' W 001°54'5 9.5
2017-Sep-25 22:30N 46°30' W 001°51'3 5.2
2017-Sep-25 22:00N 46°30' W 001°48'  
2017-Sep-20 08:27N 46°29' W 001°47'1 1.4
2017-Sep-20 07:59N 46°30' W 001°47'0 0.0
2017-Sep-20 07:29N 46°30' W 001°47'0 0.0
2017-Sep-20 06:59N 46°30' W 001°47'0 0.0
2017-Sep-20 06:29N 46°30' W 001°47'0 0.0
2017-Sep-20 05:59N 46°30' W 001°47'0 0.0
2017-Sep-20 05:29N 46°30' W 001°47'0 0.0
2017-Sep-20 05:00N 46°30' W 001°47'4 7.0
2017-Sep-20 04:30N 46°27' W 001°44'1 1.1
2017-Sep-20 03:11N 46°27' W 001°42'2 9.2
2017-Sep-20 03:00N 46°27' W 001°45'3 6.4
2017-Sep-20 02:29N 46°30' W 001°47'0 0.0
2017-Sep-20 01:59N 46°30' W 001°47'0 0.0
2017-Sep-20 01:30N 46°30' W 001°47'0 0.0
2017-Sep-20 00:59N 46°30' W 001°47'0 0.0
2017-Sep-20 00:30N 46°30' W 001°47'0 0.0
2017-Sep-19 23:59N 46°30' W 001°47'0 0.0
2017-Sep-19 23:29N 46°30' W 001°47'0 0.0
2017-Sep-19 22:59N 46°30' W 001°47'0 0.0
2017-Sep-19 22:30N 46°30' W 001°47'0 0.0
2017-Sep-19 21:59N 46°30' W 001°47'0 0.0
2017-Sep-19 21:30N 46°30' W 001°47'0 0.0
2017-Sep-19 20:56N 46°30' W 001°47'0 0.0
2017-Sep-19 20:29N 46°30' W 001°47'0 0.0
2017-Sep-19 19:59N 46°30' W 001°47'0 0.0
2017-Sep-19 19:29N 46°30' W 001°47'0 0.0
2017-Sep-19 18:57N 46°30' W 001°47'0 0.0
2017-Sep-19 18:29N 46°30' W 001°47'1 1.3
2017-Sep-19 18:00N 46°29' W 001°47'4 8.1
2017-Sep-19 17:30N 46°32' W 001°52'5 1.3
2017-Sep-19 13:36N 46°36' W 001°55'1 9.0
2017-Sep-19 13:28N 46°35' W 001°54'4 8.9
2017-Sep-19 13:00N 46°31' W 001°52'4 7.2
2017-Sep-19 12:30N 46°29' W 001°48'1 2.2
2017-Sep-19 12:01N 46°30' W 001°47'0 0.0
2017-Sep-19 11:31N 46°30' W 001°47'0 0.0
2017-Sep-19 11:01N 46°30' W 001°47'0 0.8
2017-Sep-19 10:31N 46°30' W 001°48'4 7.0
2017-Sep-19 10:00N 46°30' W 001°53'5 9.7
2017-Sep-19 09:31N 46°34' W 001°57'6 0.2
2017-Sep-18 09:58N 46°37' W 002°05'510.0
2017-Sep-18 09:30N 46°34' W 001°59'510.1
2017-Sep-18 09:00N 46°31' W 001°54'5 9.8
2017-Sep-18 08:30N 46°29' W 001°48'1 2.8
2017-Sep-18 08:00N 46°30' W 001°47'  
Track history (hours):
 
Tides and Currents Weather Stations Pressure Air Temp Water Temp Dewpoint Dewpoint Depression Visibility Wind Speed Wind Dir Waves Ship Positions

Miniplon

Last reported at 2017-Sep-26 21:10 UTC. Time now 2017-Sep-26 21:58 UTC.
Position N 47°21' W 002°31'.

Type: SAR. MMSI: 228024600.

Date/timePositionNaut miles runAvg speedWind from/ knotsBaromVisibWave heightAir tempDewpointWater temp
2017-Sep-26 21:10N 47°21' W 002°31'46 2.2
2017-Sep-26 00:24N 46°41' W 001°58'0 0.6
2017-Sep-25 23:47N 46°41' W 001°58'3 9.1
2017-Sep-25 23:30N 46°38' W 001°57'5 9.6
2017-Sep-25 23:00N 46°34' W 001°54'5 9.5
2017-Sep-25 22:30N 46°30' W 001°51'3 5.2
2017-Sep-25 22:00N 46°30' W 001°48'  
2017-Sep-20 08:27N 46°29' W 001°47'1 1.4
2017-Sep-20 07:59N 46°30' W 001°47'0 0.0
2017-Sep-20 07:29N 46°30' W 001°47'0 0.0
2017-Sep-20 06:59N 46°30' W 001°47'0 0.0
2017-Sep-20 06:29N 46°30' W 001°47'0 0.0
2017-Sep-20 05:59N 46°30' W 001°47'0 0.0
2017-Sep-20 05:29N 46°30' W 001°47'0 0.0
2017-Sep-20 05:00N 46°30' W 001°47'4 7.0
2017-Sep-20 04:30N 46°27' W 001°44'1 1.1
2017-Sep-20 03:11N 46°27' W 001°42'2 9.2
2017-Sep-20 03:00N 46°27' W 001°45'3 6.4
2017-Sep-20 02:29N 46°30' W 001°47'0 0.0
2017-Sep-20 01:59N 46°30' W 001°47'0 0.0
2017-Sep-20 01:30N 46°30' W 001°47'0 0.0
2017-Sep-20 00:59N 46°30' W 001°47'0 0.0
2017-Sep-20 00:30N 46°30' W 001°47'0 0.0
2017-Sep-19 23:59N 46°30' W 001°47'0 0.0
2017-Sep-19 23:29N 46°30' W 001°47'0 0.0
2017-Sep-19 22:59N 46°30' W 001°47'0 0.0
2017-Sep-19 22:30N 46°30' W 001°47'0 0.0
2017-Sep-19 21:59N 46°30' W 001°47'0 0.0
2017-Sep-19 21:30N 46°30' W 001°47'0 0.0
2017-Sep-19 20:56N 46°30' W 001°47'0 0.0
2017-Sep-19 20:29N 46°30' W 001°47'0 0.0
2017-Sep-19 19:59N 46°30' W 001°47'0 0.0
2017-Sep-19 19:29N 46°30' W 001°47'0 0.0
2017-Sep-19 18:57N 46°30' W 001°47'0 0.0
2017-Sep-19 18:29N 46°30' W 001°47'1 1.3
2017-Sep-19 18:00N 46°29' W 001°47'4 8.1
2017-Sep-19 17:30N 46°32' W 001°52'5 1.3
2017-Sep-19 13:36N 46°36' W 001°55'1 9.0
2017-Sep-19 13:28N 46°35' W 001°54'4 8.9
2017-Sep-19 13:00N 46°31' W 001°52'4 7.2
2017-Sep-19 12:30N 46°29' W 001°48'1 2.2
2017-Sep-19 12:01N 46°30' W 001°47'0 0.0
2017-Sep-19 11:31N 46°30' W 001°47'0 0.0
2017-Sep-19 11:01N 46°30' W 001°47'0 0.8
2017-Sep-19 10:31N 46°30' W 001°48'4 7.0
2017-Sep-19 10:00N 46°30' W 001°53'5 9.7
2017-Sep-19 09:31N 46°34' W 001°57'6 0.2
2017-Sep-18 09:58N 46°37' W 002°05'510.0
2017-Sep-18 09:30N 46°34' W 001°59'510.1
2017-Sep-18 09:00N 46°31' W 001°54'5 9.8
2017-Sep-18 08:30N 46°29' W 001°48'1 2.8
2017-Sep-18 08:00N 46°30' W 001°47'  

Dump ship's entire track history